sensor_id;sensor_type;location;lat;lon;timestamp;P1;durP1;ratioP1;P2;durP2;ratioP2
73697;SDS011;62004;42.566;23.164;2023-07-08T00:03:53;15.15;;;11.50;;
73697;SDS011;62004;42.566;23.164;2023-07-08T00:06:24;13.63;;;11.57;;
73697;SDS011;62004;42.566;23.164;2023-07-08T00:08:50;14.73;;;11.77;;
73697;SDS011;62004;42.566;23.164;2023-07-08T00:11:16;15.10;;;11.50;;
73697;SDS011;62004;42.566;23.164;2023-07-08T00:13:42;15.68;;;12.88;;
73697;SDS011;62004;42.566;23.164;2023-07-08T00:16:10;17.92;;;13.88;;
73697;SDS011;62004;42.566;23.164;2023-07-08T00:18:36;20.02;;;13.27;;
73697;SDS011;62004;42.566;23.164;2023-07-08T00:21:02;17.02;;;14.13;;
73697;SDS011;62004;42.566;23.164;2023-07-08T00:23:28;13.63;;;11.70;;
73697;SDS011;62004;42.566;23.164;2023-07-08T00:25:53;18.80;;;12.37;;
73697;SDS011;62004;42.566;23.164;2023-07-08T00:28:19;19.17;;;14.03;;
73697;SDS011;62004;42.566;23.164;2023-07-08T00:30:45;18.27;;;15.13;;
73697;SDS011;62004;42.566;23.164;2023-07-08T00:33:10;15.27;;;12.53;;
73697;SDS011;62004;42.566;23.164;2023-07-08T00:35:58;17.20;;;14.25;;
73697;SDS011;62004;42.566;23.164;2023-07-08T00:38:24;19.40;;;14.20;;
73697;SDS011;62004;42.566;23.164;2023-07-08T00:41:03;16.23;;;13.55;;
73697;SDS011;62004;42.566;23.164;2023-07-08T00:43:41;18.88;;;15.60;;
73697;SDS011;62004;42.566;23.164;2023-07-08T00:51:31;22.83;;;17.37;;
73697;SDS011;62004;42.566;23.164;2023-07-08T00:53:56;20.57;;;17.70;;
73697;SDS011;62004;42.566;23.164;2023-07-08T00:56:25;22.23;;;17.53;;
73697;SDS011;62004;42.566;23.164;2023-07-08T00:58:55;21.90;;;17.40;;
73697;SDS011;62004;42.566;23.164;2023-07-08T01:01:21;25.20;;;18.75;;
73697;SDS011;62004;42.566;23.164;2023-07-08T01:04:13;23.63;;;19.10;;
73697;SDS011;62004;42.566;23.164;2023-07-08T01:06:53;21.65;;;18.08;;
73697;SDS011;62004;42.566;23.164;2023-07-08T01:09:22;23.33;;;19.10;;
73697;SDS011;62004;42.566;23.164;2023-07-08T01:11:49;19.58;;;16.63;;
73697;SDS011;62004;42.566;23.164;2023-07-08T01:14:15;17.35;;;14.73;;
73697;SDS011;62004;42.566;23.164;2023-07-08T01:16:42;19.95;;;17.23;;
73697;SDS011;62004;42.566;23.164;2023-07-08T01:19:08;19.75;;;16.38;;
73697;SDS011;62004;42.566;23.164;2023-07-08T01:24:04;22.65;;;17.55;;
73697;SDS011;62004;42.566;23.164;2023-07-08T01:26:30;22.55;;;17.35;;
73697;SDS011;62004;42.566;23.164;2023-07-08T01:28:57;20.50;;;18.27;;
73697;SDS011;62004;42.566;23.164;2023-07-08T01:31:23;16.38;;;13.80;;
73697;SDS011;62004;42.566;23.164;2023-07-08T01:33:48;20.15;;;16.92;;
73697;SDS011;62004;42.566;23.164;2023-07-08T01:36:14;16.70;;;14.13;;
73697;SDS011;62004;42.566;23.164;2023-07-08T01:38:39;20.63;;;16.77;;
73697;SDS011;62004;42.566;23.164;2023-07-08T01:41:05;21.35;;;18.17;;
73697;SDS011;62004;42.566;23.164;2023-07-08T01:43:30;19.20;;;16.95;;
73697;SDS011;62004;42.566;23.164;2023-07-08T01:45:56;21.13;;;18.38;;
73697;SDS011;62004;42.566;23.164;2023-07-08T01:48:23;17.60;;;15.32;;
73697;SDS011;62004;42.566;23.164;2023-07-08T01:50:53;19.60;;;16.58;;
73697;SDS011;62004;42.566;23.164;2023-07-08T01:53:21;19.58;;;17.48;;
73697;SDS011;62004;42.566;23.164;2023-07-08T01:55:47;19.13;;;15.80;;
73697;SDS011;62004;42.566;23.164;2023-07-08T01:58:12;21.13;;;18.30;;
73697;SDS011;62004;42.566;23.164;2023-07-08T02:00:37;18.43;;;16.47;;
73697;SDS011;62004;42.566;23.164;2023-07-08T02:03:03;21.88;;;17.63;;
73697;SDS011;62004;42.566;23.164;2023-07-08T02:05:28;19.27;;;16.98;;
73697;SDS011;62004;42.566;23.164;2023-07-08T02:07:53;21.73;;;17.53;;
73697;SDS011;62004;42.566;23.164;2023-07-08T02:10:18;18.63;;;16.63;;
73697;SDS011;62004;42.566;23.164;2023-07-08T02:12:44;20.17;;;17.00;;
73697;SDS011;62004;42.566;23.164;2023-07-08T02:15:09;19.80;;;15.63;;
73697;SDS011;62004;42.566;23.164;2023-07-08T02:17:35;16.88;;;14.95;;
73697;SDS011;62004;42.566;23.164;2023-07-08T02:20:00;18.70;;;16.70;;
73697;SDS011;62004;42.566;23.164;2023-07-08T02:22:25;18.70;;;16.07;;
73697;SDS011;62004;42.566;23.164;2023-07-08T02:24:51;22.40;;;18.63;;
73697;SDS011;62004;42.566;23.164;2023-07-08T02:27:16;25.53;;;17.70;;
73697;SDS011;62004;42.566;23.164;2023-07-08T02:29:41;23.00;;;18.58;;
73697;SDS011;62004;42.566;23.164;2023-07-08T02:32:08;21.40;;;17.42;;
73697;SDS011;62004;42.566;23.164;2023-07-08T02:34:34;22.00;;;16.85;;
73697;SDS011;62004;42.566;23.164;2023-07-08T02:37:00;22.63;;;17.95;;
73697;SDS011;62004;42.566;23.164;2023-07-08T02:39:25;20.13;;;16.77;;
73697;SDS011;62004;42.566;23.164;2023-07-08T02:41:50;18.88;;;15.90;;
73697;SDS011;62004;42.566;23.164;2023-07-08T02:44:15;24.50;;;19.00;;
73697;SDS011;62004;42.566;23.164;2023-07-08T02:47:03;18.92;;;16.00;;
73697;SDS011;62004;42.566;23.164;2023-07-08T02:49:51;22.83;;;18.05;;
73697;SDS011;62004;42.566;23.164;2023-07-08T02:52:39;20.45;;;17.27;;
73697;SDS011;62004;42.566;23.164;2023-07-08T02:55:27;22.35;;;17.58;;
73697;SDS011;62004;42.566;23.164;2023-07-08T02:58:15;19.10;;;16.95;;
73697;SDS011;62004;42.566;23.164;2023-07-08T03:01:03;23.13;;;17.77;;
73697;SDS011;62004;42.566;23.164;2023-07-08T03:03:51;19.55;;;16.00;;
73697;SDS011;62004;42.566;23.164;2023-07-08T03:06:40;23.13;;;17.55;;
73697;SDS011;62004;42.566;23.164;2023-07-08T03:09:29;21.08;;;17.90;;
73697;SDS011;62004;42.566;23.164;2023-07-08T03:11:54;21.50;;;16.80;;
73697;SDS011;62004;42.566;23.164;2023-07-08T03:14:19;21.08;;;17.15;;
73697;SDS011;62004;42.566;23.164;2023-07-08T03:16:45;20.73;;;15.07;;
73697;SDS011;62004;42.566;23.164;2023-07-08T03:19:11;16.45;;;13.68;;
73697;SDS011;62004;42.566;23.164;2023-07-08T03:21:48;18.58;;;14.57;;
73697;SDS011;62004;42.566;23.164;2023-07-08T03:24:14;22.08;;;15.43;;
73697;SDS011;62004;42.566;23.164;2023-07-08T03:26:43;18.55;;;14.50;;
73697;SDS011;62004;42.566;23.164;2023-07-08T03:29:10;19.40;;;12.98;;
73697;SDS011;62004;42.566;23.164;2023-07-08T03:31:38;14.93;;;12.52;;
73697;SDS011;62004;42.566;23.164;2023-07-08T03:34:04;15.48;;;13.43;;
73697;SDS011;62004;42.566;23.164;2023-07-08T03:36:29;18.15;;;13.93;;
73697;SDS011;62004;42.566;23.164;2023-07-08T03:38:55;14.13;;;11.45;;
73697;SDS011;62004;42.566;23.164;2023-07-08T03:41:22;17.40;;;13.88;;
73697;SDS011;62004;42.566;23.164;2023-07-08T03:43:48;17.90;;;12.23;;
73697;SDS011;62004;42.566;23.164;2023-07-08T03:46:15;13.20;;;11.73;;
73697;SDS011;62004;42.566;23.164;2023-07-08T03:48:41;14.63;;;11.88;;
73697;SDS011;62004;42.566;23.164;2023-07-08T03:51:12;16.25;;;11.70;;
73697;SDS011;62004;42.566;23.164;2023-07-08T03:53:51;15.90;;;13.27;;
73697;SDS011;62004;42.566;23.164;2023-07-08T03:56:16;17.17;;;12.75;;
73697;SDS011;62004;42.566;23.164;2023-07-08T03:58:41;15.70;;;12.63;;
73697;SDS011;62004;42.566;23.164;2023-07-08T04:01:20;13.87;;;11.50;;
73697;SDS011;62004;42.566;23.164;2023-07-08T04:03:46;14.35;;;11.68;;
73697;SDS011;62004;42.566;23.164;2023-07-08T04:06:12;12.27;;;10.93;;
73697;SDS011;62004;42.566;23.164;2023-07-08T04:08:37;13.80;;;12.02;;
73697;SDS011;62004;42.566;23.164;2023-07-08T04:11:03;13.55;;;11.48;;
73697;SDS011;62004;42.566;23.164;2023-07-08T04:13:28;13.25;;;11.43;;
73697;SDS011;62004;42.566;23.164;2023-07-08T04:15:54;16.55;;;12.43;;
73697;SDS011;62004;42.566;23.164;2023-07-08T04:18:21;14.38;;;12.13;;
73697;SDS011;62004;42.566;23.164;2023-07-08T04:20:47;13.27;;;11.05;;
73697;SDS011;62004;42.566;23.164;2023-07-08T04:23:17;15.68;;;13.15;;
73697;SDS011;62004;42.566;23.164;2023-07-08T04:25:43;13.30;;;11.10;;
73697;SDS011;62004;42.566;23.164;2023-07-08T04:28:08;14.47;;;12.17;;
73697;SDS011;62004;42.566;23.164;2023-07-08T04:30:33;16.40;;;11.43;;
73697;SDS011;62004;42.566;23.164;2023-07-08T04:33:02;14.68;;;13.13;;
73697;SDS011;62004;42.566;23.164;2023-07-08T04:35:28;14.40;;;11.40;;
73697;SDS011;62004;42.566;23.164;2023-07-08T04:37:54;13.10;;;10.43;;
73697;SDS011;62004;42.566;23.164;2023-07-08T04:40:19;17.60;;;12.30;;
73697;SDS011;62004;42.566;23.164;2023-07-08T04:42:46;11.80;;;10.00;;
73697;SDS011;62004;42.566;23.164;2023-07-08T04:45:13;18.13;;;12.15;;
73697;SDS011;62004;42.566;23.164;2023-07-08T04:47:39;12.43;;;10.25;;
73697;SDS011;62004;42.566;23.164;2023-07-08T04:50:05;13.90;;;12.50;;
73697;SDS011;62004;42.566;23.164;2023-07-08T04:52:30;15.65;;;10.38;;
73697;SDS011;62004;42.566;23.164;2023-07-08T04:54:55;12.03;;;10.10;;
73697;SDS011;62004;42.566;23.164;2023-07-08T04:57:21;11.60;;;9.97;;
73697;SDS011;62004;42.566;23.164;2023-07-08T04:59:46;16.20;;;12.70;;
73697;SDS011;62004;42.566;23.164;2023-07-08T05:02:11;12.97;;;11.40;;
73697;SDS011;62004;42.566;23.164;2023-07-08T05:04:36;11.93;;;10.73;;
73697;SDS011;62004;42.566;23.164;2023-07-08T05:07:02;14.63;;;11.70;;
73697;SDS011;62004;42.566;23.164;2023-07-08T05:09:27;13.32;;;11.90;;
73697;SDS011;62004;42.566;23.164;2023-07-08T05:11:52;14.52;;;11.10;;
73697;SDS011;62004;42.566;23.164;2023-07-08T05:14:18;12.18;;;10.57;;
73697;SDS011;62004;42.566;23.164;2023-07-08T05:16:43;13.33;;;11.50;;
73697;SDS011;62004;42.566;23.164;2023-07-08T05:19:08;15.75;;;10.70;;
73697;SDS011;62004;42.566;23.164;2023-07-08T05:21:34;12.93;;;10.43;;
73697;SDS011;62004;42.566;23.164;2023-07-08T05:24:03;13.18;;;11.43;;
73697;SDS011;62004;42.566;23.164;2023-07-08T05:28:55;14.48;;;10.32;;
73697;SDS011;62004;42.566;23.164;2023-07-08T05:31:20;13.27;;;11.98;;
73697;SDS011;62004;42.566;23.164;2023-07-08T05:33:45;14.93;;;10.07;;
73697;SDS011;62004;42.566;23.164;2023-07-08T05:36:11;12.05;;;10.43;;
73697;SDS011;62004;42.566;23.164;2023-07-08T05:38:36;11.20;;;9.37;;
73697;SDS011;62004;42.566;23.164;2023-07-08T05:41:01;16.17;;;11.38;;
73697;SDS011;62004;42.566;23.164;2023-07-08T05:43:26;11.87;;;10.63;;
73697;SDS011;62004;42.566;23.164;2023-07-08T05:45:52;16.17;;;10.50;;
73697;SDS011;62004;42.566;23.164;2023-07-08T05:48:22;11.98;;;10.32;;
73697;SDS011;62004;42.566;23.164;2023-07-08T05:50:48;12.60;;;9.10;;
73697;SDS011;62004;42.566;23.164;2023-07-08T05:53:13;10.63;;;9.47;;
73697;SDS011;62004;42.566;23.164;2023-07-08T05:55:39;12.27;;;8.88;;
73697;SDS011;62004;42.566;23.164;2023-07-08T05:58:04;12.45;;;9.50;;
73697;SDS011;62004;42.566;23.164;2023-07-08T06:00:29;12.50;;;8.07;;
73697;SDS011;62004;42.566;23.164;2023-07-08T06:02:54;13.15;;;9.65;;
73697;SDS011;62004;42.566;23.164;2023-07-08T06:05:20;10.07;;;8.97;;
73697;SDS011;62004;42.566;23.164;2023-07-08T06:07:45;9.80;;;8.80;;
73697;SDS011;62004;42.566;23.164;2023-07-08T06:10:10;10.13;;;9.00;;
73697;SDS011;62004;42.566;23.164;2023-07-08T06:12:36;10.43;;;8.57;;
73697;SDS011;62004;42.566;23.164;2023-07-08T06:15:01;14.98;;;8.07;;
73697;SDS011;62004;42.566;23.164;2023-07-08T06:17:27;11.38;;;8.02;;
73697;SDS011;62004;42.566;23.164;2023-07-08T06:19:52;10.95;;;9.07;;
73697;SDS011;62004;42.566;23.164;2023-07-08T06:22:17;10.57;;;8.13;;
73697;SDS011;62004;42.566;23.164;2023-07-08T06:24:42;12.60;;;7.70;;
73697;SDS011;62004;42.566;23.164;2023-07-08T06:27:08;10.50;;;8.98;;
73697;SDS011;62004;42.566;23.164;2023-07-08T06:29:33;13.67;;;9.17;;
73697;SDS011;62004;42.566;23.164;2023-07-08T06:31:59;10.77;;;8.07;;
73697;SDS011;62004;42.566;23.164;2023-07-08T06:34:24;9.93;;;8.48;;
73697;SDS011;62004;42.566;23.164;2023-07-08T06:36:50;9.57;;;7.13;;
73697;SDS011;62004;42.566;23.164;2023-07-08T06:39:16;10.43;;;6.90;;
73697;SDS011;62004;42.566;23.164;2023-07-08T06:41:41;12.63;;;7.75;;
73697;SDS011;62004;42.566;23.164;2023-07-08T06:44:07;8.63;;;7.78;;
73697;SDS011;62004;42.566;23.164;2023-07-08T06:46:32;11.40;;;8.90;;
73697;SDS011;62004;42.566;23.164;2023-07-08T06:48:57;13.80;;;7.82;;
73697;SDS011;62004;42.566;23.164;2023-07-08T06:51:23;12.00;;;7.93;;
73697;SDS011;62004;42.566;23.164;2023-07-08T06:53:48;12.13;;;7.37;;
73697;SDS011;62004;42.566;23.164;2023-07-08T06:56:13;12.32;;;7.80;;
73697;SDS011;62004;42.566;23.164;2023-07-08T06:58:39;14.15;;;8.15;;
73697;SDS011;62004;42.566;23.164;2023-07-08T07:01:04;14.20;;;7.90;;
73697;SDS011;62004;42.566;23.164;2023-07-08T07:03:29;10.68;;;7.28;;
73697;SDS011;62004;42.566;23.164;2023-07-08T07:05:54;9.27;;;6.63;;
73697;SDS011;62004;42.566;23.164;2023-07-08T07:08:20;7.40;;;5.93;;
73697;SDS011;62004;42.566;23.164;2023-07-08T07:10:45;11.15;;;6.32;;
73697;SDS011;62004;42.566;23.164;2023-07-08T07:13:10;14.53;;;6.73;;
73697;SDS011;62004;42.566;23.164;2023-07-08T07:15:35;10.57;;;7.17;;
73697;SDS011;62004;42.566;23.164;2023-07-08T07:18:01;9.88;;;6.13;;
73697;SDS011;62004;42.566;23.164;2023-07-08T07:20:27;8.68;;;6.10;;
73697;SDS011;62004;42.566;23.164;2023-07-08T07:22:52;11.23;;;6.47;;
73697;SDS011;62004;42.566;23.164;2023-07-08T07:25:17;8.00;;;5.63;;
73697;SDS011;62004;42.566;23.164;2023-07-08T07:27:43;11.83;;;5.80;;
73697;SDS011;62004;42.566;23.164;2023-07-08T07:30:08;8.00;;;5.97;;
73697;SDS011;62004;42.566;23.164;2023-07-08T07:32:37;6.88;;;5.45;;
73697;SDS011;62004;42.566;23.164;2023-07-08T07:35:03;7.10;;;5.47;;
73697;SDS011;62004;42.566;23.164;2023-07-08T07:37:28;7.68;;;5.82;;
73697;SDS011;62004;42.566;23.164;2023-07-08T07:39:54;6.03;;;5.17;;
73697;SDS011;62004;42.566;23.164;2023-07-08T07:42:19;7.57;;;6.07;;
73697;SDS011;62004;42.566;23.164;2023-07-08T07:44:45;6.45;;;5.43;;
73697;SDS011;62004;42.566;23.164;2023-07-08T07:47:10;9.02;;;5.32;;
73697;SDS011;62004;42.566;23.164;2023-07-08T07:49:35;5.90;;;5.38;;
73697;SDS011;62004;42.566;23.164;2023-07-08T07:52:01;6.40;;;5.45;;
73697;SDS011;62004;42.566;23.164;2023-07-08T07:54:26;6.85;;;5.30;;
73697;SDS011;62004;42.566;23.164;2023-07-08T07:56:52;6.82;;;5.03;;
73697;SDS011;62004;42.566;23.164;2023-07-08T07:59:17;7.40;;;5.25;;
73697;SDS011;62004;42.566;23.164;2023-07-08T08:01:42;10.93;;;5.50;;
73697;SDS011;62004;42.566;23.164;2023-07-08T08:04:09;6.78;;;5.10;;
73697;SDS011;62004;42.566;23.164;2023-07-08T08:06:34;6.45;;;5.05;;
73697;SDS011;62004;42.566;23.164;2023-07-08T08:08:59;6.57;;;5.78;;
73697;SDS011;62004;42.566;23.164;2023-07-08T08:11:25;5.20;;;4.70;;
73697;SDS011;62004;42.566;23.164;2023-07-08T08:13:51;8.35;;;5.70;;
73697;SDS011;62004;42.566;23.164;2023-07-08T08:16:16;6.10;;;4.60;;
73697;SDS011;62004;42.566;23.164;2023-07-08T08:18:42;4.77;;;4.37;;
73697;SDS011;62004;42.566;23.164;2023-07-08T08:21:07;5.15;;;4.65;;
73697;SDS011;62004;42.566;23.164;2023-07-08T08:23:32;5.23;;;4.73;;
73697;SDS011;62004;42.566;23.164;2023-07-08T08:25:58;5.25;;;4.85;;
73697;SDS011;62004;42.566;23.164;2023-07-08T08:28:23;5.40;;;4.90;;
73697;SDS011;62004;42.566;23.164;2023-07-08T08:30:49;6.43;;;4.70;;
73697;SDS011;62004;42.566;23.164;2023-07-08T08:33:15;5.00;;;4.53;;
73697;SDS011;62004;42.566;23.164;2023-07-08T08:35:41;5.20;;;4.70;;
73697;SDS011;62004;42.566;23.164;2023-07-08T08:38:07;5.85;;;4.43;;
73697;SDS011;62004;42.566;23.164;2023-07-08T08:40:32;5.18;;;4.68;;
73697;SDS011;62004;42.566;23.164;2023-07-08T08:42:59;5.30;;;4.80;;
73697;SDS011;62004;42.566;23.164;2023-07-08T08:45:25;6.50;;;4.65;;
73697;SDS011;62004;42.566;23.164;2023-07-08T08:47:54;8.00;;;5.32;;
73697;SDS011;62004;42.566;23.164;2023-07-08T08:52:49;5.57;;;4.65;;
73697;SDS011;62004;42.566;23.164;2023-07-08T08:55:15;5.90;;;4.70;;
73697;SDS011;62004;42.566;23.164;2023-07-08T08:57:45;5.63;;;4.82;;
73697;SDS011;62004;42.566;23.164;2023-07-08T09:00:14;5.90;;;5.40;;
73697;SDS011;62004;42.566;23.164;2023-07-08T09:02:53;5.75;;;5.15;;
73697;SDS011;62004;42.566;23.164;2023-07-08T09:05:18;5.45;;;4.95;;
73697;SDS011;62004;42.566;23.164;2023-07-08T09:07:45;6.50;;;4.95;;
73697;SDS011;62004;42.566;23.164;2023-07-08T09:10:15;5.03;;;4.53;;
73697;SDS011;62004;42.566;23.164;2023-07-08T09:12:44;6.13;;;4.22;;
73697;SDS011;62004;42.566;23.164;2023-07-08T09:15:13;5.32;;;4.20;;
73697;SDS011;62004;42.566;23.164;2023-07-08T09:17:39;4.75;;;3.75;;
73697;SDS011;62004;42.566;23.164;2023-07-08T09:22:54;4.20;;;3.60;;
73697;SDS011;62004;42.566;23.164;2023-07-08T09:25:24;4.78;;;3.83;;
73697;SDS011;62004;42.566;23.164;2023-07-08T09:27:49;4.53;;;4.13;;
73697;SDS011;62004;42.566;23.164;2023-07-08T09:30:15;6.00;;;5.40;;
73697;SDS011;62004;42.566;23.164;2023-07-08T09:32:41;5.05;;;4.40;;
73697;SDS011;62004;42.566;23.164;2023-07-08T09:35:07;5.53;;;4.80;;
73697;SDS011;62004;42.566;23.164;2023-07-08T09:37:36;4.32;;;3.92;;
73697;SDS011;62004;42.566;23.164;2023-07-08T09:42:31;5.25;;;4.70;;
73697;SDS011;62004;42.566;23.164;2023-07-08T09:44:58;5.03;;;4.10;;
73697;SDS011;62004;42.566;23.164;2023-07-08T09:47:27;14.32;;;4.80;;
73697;SDS011;62004;42.566;23.164;2023-07-08T09:49:57;6.45;;;5.10;;
73697;SDS011;62004;42.566;23.164;2023-07-08T09:52:23;6.53;;;5.22;;
73697;SDS011;62004;42.566;23.164;2023-07-08T09:54:50;6.05;;;5.20;;
73697;SDS011;62004;42.566;23.164;2023-07-08T09:57:39;4.35;;;3.83;;
73697;SDS011;62004;42.566;23.164;2023-07-08T10:00:38;4.78;;;4.38;;
73697;SDS011;62004;42.566;23.164;2023-07-08T10:03:28;4.32;;;3.88;;
73697;SDS011;62004;42.566;23.164;2023-07-08T10:06:27;4.18;;;3.78;;
73697;SDS011;62004;42.566;23.164;2023-07-08T10:09:19;4.63;;;3.67;;
73697;SDS011;62004;42.566;23.164;2023-07-08T10:12:08;5.75;;;5.32;;
73697;SDS011;62004;42.566;23.164;2023-07-08T10:15:03;4.55;;;4.15;;
73697;SDS011;62004;42.566;23.164;2023-07-08T10:17:53;4.88;;;4.38;;
73697;SDS011;62004;42.566;23.164;2023-07-08T10:27:24;4.68;;;4.15;;
73697;SDS011;62004;42.566;23.164;2023-07-08T10:30:26;3.33;;;3.08;;
73697;SDS011;62004;42.566;23.164;2023-07-08T10:51:41;4.00;;;3.50;;
73697;SDS011;62004;42.566;23.164;2023-07-08T10:58:07;3.58;;;3.28;;
73697;SDS011;62004;42.566;23.164;2023-07-08T11:13:11;4.45;;;3.22;;
73697;SDS011;62004;42.566;23.164;2023-07-08T11:16:07;4.47;;;3.33;;
73697;SDS011;62004;42.566;23.164;2023-07-08T11:19:37;4.22;;;3.83;;
73697;SDS011;62004;42.566;23.164;2023-07-08T11:22:24;3.40;;;3.10;;
73697;SDS011;62004;42.566;23.164;2023-07-08T11:25:32;4.18;;;3.78;;
73697;SDS011;62004;42.566;23.164;2023-07-08T11:28:25;4.57;;;3.08;;
73697;SDS011;62004;42.566;23.164;2023-07-08T11:31:13;3.65;;;2.90;;
73697;SDS011;62004;42.566;23.164;2023-07-08T11:34:01;3.85;;;3.47;;
73697;SDS011;62004;42.566;23.164;2023-07-08T11:36:53;3.97;;;3.63;;
73697;SDS011;62004;42.566;23.164;2023-07-08T11:39:44;4.25;;;3.85;;
73697;SDS011;62004;42.566;23.164;2023-07-08T11:45:31;4.85;;;3.47;;
73697;SDS011;62004;42.566;23.164;2023-07-08T11:48:22;3.90;;;3.47;;
73697;SDS011;62004;42.566;23.164;2023-07-08T11:51:29;4.70;;;3.58;;
73697;SDS011;62004;42.566;23.164;2023-07-08T11:54:28;5.28;;;3.78;;
73697;SDS011;62004;42.566;23.164;2023-07-08T11:57:30;3.90;;;3.22;;
73697;SDS011;62004;42.566;23.164;2023-07-08T12:00:22;3.45;;;3.15;;
73697;SDS011;62004;42.566;23.164;2023-07-08T12:03:18;4.60;;;3.63;;
73697;SDS011;62004;42.566;23.164;2023-07-08T12:12:23;4.28;;;3.53;;
73697;SDS011;62004;42.566;23.164;2023-07-08T12:15:17;4.53;;;3.22;;
73697;SDS011;62004;42.566;23.164;2023-07-08T12:18:15;3.60;;;2.70;;
73697;SDS011;62004;42.566;23.164;2023-07-08T12:21:04;6.10;;;2.80;;
73697;SDS011;62004;42.566;23.164;2023-07-08T12:23:53;4.75;;;2.78;;
73697;SDS011;62004;42.566;23.164;2023-07-08T12:26:41;6.40;;;3.25;;
73697;SDS011;62004;42.566;23.164;2023-07-08T12:29:29;5.30;;;3.10;;
73697;SDS011;62004;42.566;23.164;2023-07-08T12:32:17;4.10;;;2.45;;
73697;SDS011;62004;42.566;23.164;2023-07-08T12:35:08;4.80;;;3.28;;
73697;SDS011;62004;42.566;23.164;2023-07-08T12:38:10;3.85;;;2.38;;
73697;SDS011;62004;42.566;23.164;2023-07-08T12:41:08;4.53;;;2.67;;
73697;SDS011;62004;42.566;23.164;2023-07-08T12:43:59;2.92;;;2.70;;
73697;SDS011;62004;42.566;23.164;2023-07-08T12:46:49;3.83;;;2.90;;
73697;SDS011;62004;42.566;23.164;2023-07-08T12:49:37;4.97;;;2.90;;
73697;SDS011;62004;42.566;23.164;2023-07-08T12:52:25;4.43;;;2.97;;
73697;SDS011;62004;42.566;23.164;2023-07-08T12:55:14;3.92;;;2.78;;
73697;SDS011;62004;42.566;23.164;2023-07-08T12:58:03;3.22;;;2.88;;
73697;SDS011;62004;42.566;23.164;2023-07-08T13:00:55;4.50;;;2.92;;
73697;SDS011;62004;42.566;23.164;2023-07-08T13:03:46;4.93;;;2.78;;
73697;SDS011;62004;42.566;23.164;2023-07-08T13:06:35;5.63;;;2.88;;
73697;SDS011;62004;42.566;23.164;2023-07-08T13:09:36;3.88;;;2.78;;
73697;SDS011;62004;42.566;23.164;2023-07-08T13:12:25;4.05;;;2.72;;
73697;SDS011;62004;42.566;23.164;2023-07-08T13:15:20;2.47;;;2.10;;
73697;SDS011;62004;42.566;23.164;2023-07-08T13:18:15;6.47;;;2.97;;
73697;SDS011;62004;42.566;23.164;2023-07-08T13:21:08;2.78;;;2.58;;
73697;SDS011;62004;42.566;23.164;2023-07-08T13:23:57;4.88;;;2.38;;
73697;SDS011;62004;42.566;23.164;2023-07-08T13:26:46;3.90;;;2.35;;
73697;SDS011;62004;42.566;23.164;2023-07-08T13:29:37;3.15;;;2.80;;
73697;SDS011;62004;42.566;23.164;2023-07-08T13:32:42;2.50;;;2.03;;
73697;SDS011;62004;42.566;23.164;2023-07-08T13:35:41;3.53;;;2.53;;
73697;SDS011;62004;42.566;23.164;2023-07-08T13:38:33;3.28;;;2.55;;
73697;SDS011;62004;42.566;23.164;2023-07-08T13:41:22;2.90;;;1.85;;
73697;SDS011;62004;42.566;23.164;2023-07-08T13:44:11;2.50;;;1.90;;
73697;SDS011;62004;42.566;23.164;2023-07-08T13:47:00;4.18;;;2.42;;
73697;SDS011;62004;42.566;23.164;2023-07-08T13:49:54;2.63;;;2.13;;
73697;SDS011;62004;42.566;23.164;2023-07-08T13:52:44;3.03;;;2.72;;
73697;SDS011;62004;42.566;23.164;2023-07-08T13:55:42;7.40;;;2.55;;
73697;SDS011;62004;42.566;23.164;2023-07-08T13:58:28;3.70;;;2.70;;
73697;SDS011;62004;42.566;23.164;2023-07-08T14:01:18;6.32;;;2.55;;
73697;SDS011;62004;42.566;23.164;2023-07-08T14:04:09;2.75;;;2.53;;
73697;SDS011;62004;42.566;23.164;2023-07-08T14:06:59;2.60;;;2.28;;
73697;SDS011;62004;42.566;23.164;2023-07-08T14:09:48;2.78;;;2.40;;
73697;SDS011;62004;42.566;23.164;2023-07-08T14:12:37;4.28;;;2.35;;
73697;SDS011;62004;42.566;23.164;2023-07-08T14:15:25;2.38;;;2.17;;
73697;SDS011;62004;42.566;23.164;2023-07-08T14:18:13;4.72;;;2.42;;
73697;SDS011;62004;42.566;23.164;2023-07-08T14:21:01;4.95;;;2.35;;
73697;SDS011;62004;42.566;23.164;2023-07-08T14:26:43;2.13;;;1.92;;
73697;SDS011;62004;42.566;23.164;2023-07-08T14:29:36;4.47;;;2.15;;
73697;SDS011;62004;42.566;23.164;2023-07-08T14:32:28;4.68;;;3.13;;
73697;SDS011;62004;42.566;23.164;2023-07-08T14:35:18;3.42;;;2.80;;
73697;SDS011;62004;42.566;23.164;2023-07-08T14:38:10;4.82;;;2.83;;
73697;SDS011;62004;42.566;23.164;2023-07-08T14:40:58;3.92;;;2.80;;
73697;SDS011;62004;42.566;23.164;2023-07-08T14:43:46;3.65;;;2.75;;
73697;SDS011;62004;42.566;23.164;2023-07-08T14:46:43;3.70;;;2.58;;
73697;SDS011;62004;42.566;23.164;2023-07-08T14:49:24;2.35;;;2.13;;
73697;SDS011;62004;42.566;23.164;2023-07-08T14:52:09;3.13;;;2.45;;
73697;SDS011;62004;42.566;23.164;2023-07-08T14:54:57;3.20;;;2.42;;
73697;SDS011;62004;42.566;23.164;2023-07-08T14:57:44;3.50;;;2.65;;
73697;SDS011;62004;42.566;23.164;2023-07-08T15:00:33;2.22;;;1.90;;
73697;SDS011;62004;42.566;23.164;2023-07-08T15:03:23;5.82;;;3.00;;
73697;SDS011;62004;42.566;23.164;2023-07-08T15:08:39;2.78;;;2.20;;
73697;SDS011;62004;42.566;23.164;2023-07-08T15:11:28;2.88;;;2.28;;
73697;SDS011;62004;42.566;23.164;2023-07-08T15:14:20;3.75;;;2.28;;
73697;SDS011;62004;42.566;23.164;2023-07-08T15:17:11;3.35;;;2.53;;
73697;SDS011;62004;42.566;23.164;2023-07-08T15:20:00;2.65;;;2.45;;
73697;SDS011;62004;42.566;23.164;2023-07-08T15:22:48;2.70;;;2.50;;
73697;SDS011;62004;42.566;23.164;2023-07-08T15:25:37;4.47;;;2.08;;
73697;SDS011;62004;42.566;23.164;2023-07-08T15:28:34;3.08;;;2.42;;
73697;SDS011;62004;42.566;23.164;2023-07-08T15:31:24;4.80;;;2.58;;
73697;SDS011;62004;42.566;23.164;2023-07-08T15:34:14;3.22;;;2.45;;
73697;SDS011;62004;42.566;23.164;2023-07-08T15:37:03;3.25;;;2.65;;
73697;SDS011;62004;42.566;23.164;2023-07-08T15:39:50;3.92;;;3.10;;
73697;SDS011;62004;42.566;23.164;2023-07-08T15:42:39;4.40;;;2.92;;
73697;SDS011;62004;42.566;23.164;2023-07-08T15:45:30;5.75;;;3.55;;
73697;SDS011;62004;42.566;23.164;2023-07-08T15:48:18;3.72;;;2.95;;
73697;SDS011;62004;42.566;23.164;2023-07-08T15:51:03;4.65;;;3.60;;
73697;SDS011;62004;42.566;23.164;2023-07-08T15:53:51;4.97;;;3.15;;
73697;SDS011;62004;42.566;23.164;2023-07-08T15:56:38;4.72;;;3.40;;
73697;SDS011;62004;42.566;23.164;2023-07-08T15:59:26;4.68;;;3.05;;
73697;SDS011;62004;42.566;23.164;2023-07-08T16:02:14;5.20;;;3.70;;
73697;SDS011;62004;42.566;23.164;2023-07-08T16:05:00;5.10;;;3.10;;
73697;SDS011;62004;42.566;23.164;2023-07-08T16:07:47;5.43;;;3.50;;
73697;SDS011;62004;42.566;23.164;2023-07-08T16:10:21;15.88;;;8.45;;
73697;SDS011;62004;42.566;23.164;2023-07-08T16:12:57;8.90;;;5.38;;
73697;SDS011;62004;42.566;23.164;2023-07-08T16:15:36;22.20;;;11.02;;
73697;SDS011;62004;42.566;23.164;2023-07-08T16:18:25;13.23;;;7.50;;
73697;SDS011;62004;42.566;23.164;2023-07-08T16:21:13;26.33;;;14.70;;
73697;SDS011;62004;42.566;23.164;2023-07-08T16:24:00;53.58;;;29.58;;
73697;SDS011;62004;42.566;23.164;2023-07-08T16:26:48;13.02;;;7.97;;